Techny, Illinois
Current Conditions -  °F | °C
As of 3:52 PM on Monday 20 Oct 2014 (Local Time) from KPWK Reporting Station
Overcast Overcast  
Wind Chill: 57°   Ceiling: 5500
Heat Index: 57°   Visibility: 10mi
Dew Point: 47°   Wind: 12mph
Humidity: 69%   Direction: 20°NNE
Pressure: 29.9"   Gusts: NA
Location:  42.11°N, 87.83°W
Report Text: KPWK 202052Z 02010KT 10SM SCT043 OVC055 14/08 A2990 RMK AO2 WSHFT 1955 SLP125 T01390083 53017
Loading
Personal Weather Stations






























Interactive Weather Map
Tropical Storm Tracking
New forecast layout! Learn more

10-Day Weather Forecast

Advertisements
Track Severe Weather on mobile